Ely, MN

2:35 PM CDT on September 26, 2017 (GMT -0500)
Ely Municipal

Weather History for KELO - November, 2012

Change the Weather History Date:

Thursday, November 22, 2012

  Actual Average Record
Temperature  
Mean Temperature 36 °F -  
Max Temperature 48 °F 30 °F 55 °F (2006)
Min Temperature 24 °F 17 °F -5 °F (2000)
Degree Days  
Heating Degree Days 29    
Moisture  
Dew Point 34 °F    
Average Humidity 84    
Maximum Humidity 100    
Minimum Humidity 66    
Precipitation  
Precipitation 0.24 in - - ()
Sea Level Pressure  
Sea Level Pressure 29.58 in    
Wind  
Wind Speed 8 mph (West)    
Max Wind Speed 17 mph    
Max Gust Speed 31 mph    
Visibility 7 miles    
Events Rain , Snow    
Averages and records for this station are not official NWS values.
T = Trace of Precipitation, MM = Missing Value Source: NWS Daily Summary

Daily Weather History Graph

Daily Weather History Graph

Search for Another Location

Airport or City:

Trip Planner

Search our weather history database for the weather conditions in past years. The results will help you decide how hot, cold, wet, or windy it might be!

Date:

Astronomy

Nov. 22, 2012 Rise Set
Actual Time 7:24 AM CST 4:22 PM CST
Civil Twilight 6:49 AM CST 4:57 PM CST
Nautical Twilight 6:11 AM CST 5:35 PM CST
Astronomical Twilight 5:34 AM CST 6:12 PM CST
Moon 1:28 PM CST (11/22) 1:22 AM CST (11/22)
Length of Visible Light 10h 07m
Length of Day
8h 58m
Waxing Gibbous, 71% of the Moon is Illuminated
Nov 22
Waxing Gibbous
Nov 28
Full
Dec 6
Last Quarter
Dec 13
New
Dec 19
First Quarter

Hourly Weather History & Observations

Time (CST) Temp. Windchill Dew Point Humidity Pressure Visibility Wind Dir Wind Speed Gust Speed Precip Events Conditions
12:13 AM 48.2 °F - 37.4 °F 66% 29.59 in 10.0 mi South 11.5 mph 18.4 mph N/A   Clear
12:32 AM 48.2 °F - 37.4 °F 66% 29.58 in 10.0 mi South 12.7 mph 18.4 mph N/A   Clear
12:53 AM 48.2 °F - 37.4 °F 66% 29.57 in 10.0 mi South 8.1 mph - N/A   Clear
1:13 AM 46.4 °F 41.5 °F 37.4 °F 71% 29.56 in 10.0 mi South 10.4 mph 16.1 mph N/A   Clear
1:32 AM 48.2 °F - 37.4 °F 66% 29.56 in 10.0 mi South 8.1 mph 23.0 mph N/A   Clear
1:53 AM 46.4 °F 42.9 °F 37.4 °F 71% 29.55 in 10.0 mi South 6.9 mph - N/A   Clear
2:13 AM 46.4 °F 41.9 °F 37.4 °F 71% 29.55 in 10.0 mi SSW 9.2 mph - N/A   Clear
2:32 AM 46.4 °F 42.9 °F 37.4 °F 71% 29.54 in 10.0 mi SSW 6.9 mph - N/A   Clear
2:53 AM 46.4 °F 42.9 °F 37.4 °F 71% 29.54 in 10.0 mi South 6.9 mph - N/A   Clear
3:13 AM 46.4 °F 43.5 °F 37.4 °F 71% 29.53 in 10.0 mi South 5.8 mph - N/A   Clear
3:32 AM 44.6 °F 42.2 °F 37.4 °F 76% 29.52 in 10.0 mi South 4.6 mph - N/A   Clear
3:53 AM 44.6 °F - 37.4 °F 76% 29.52 in 10.0 mi Calm Calm - N/A   Clear
4:12 AM 44.6 °F - 37.4 °F 76% 29.52 in 10.0 mi Calm Calm - N/A   Clear
4:33 AM 44.6 °F 43.1 °F 37.4 °F 76% 29.51 in 10.0 mi South 3.5 mph - N/A   Clear
4:53 AM 44.6 °F 41.4 °F 37.4 °F 76% 29.50 in 10.0 mi South 5.8 mph - N/A   Clear
5:12 AM 44.6 °F 41.4 °F 39.2 °F 81% 29.50 in 10.0 mi South 5.8 mph - N/A   Clear
5:33 AM 44.6 °F 42.2 °F 39.2 °F 81% 29.50 in 10.0 mi SSW 4.6 mph - N/A   Clear
5:53 AM 44.6 °F 43.1 °F 39.2 °F 81% 29.51 in 10.0 mi SSW 3.5 mph - N/A   Clear
6:12 AM 44.6 °F 43.1 °F 39.2 °F 81% 29.51 in 10.0 mi SW 3.5 mph - N/A   Clear
6:33 AM 44.6 °F 42.2 °F 39.2 °F 81% 29.51 in 10.0 mi South 4.6 mph - N/A   Clear
6:53 AM 42.8 °F 39.3 °F 39.2 °F 87% 29.51 in 10.0 mi SSW 5.8 mph - N/A   Clear
7:12 AM 44.6 °F 42.2 °F 39.2 °F 81% 29.51 in 10.0 mi SW 4.6 mph - N/A   Clear
7:31 AM 42.8 °F 40.1 °F 39.2 °F 87% 29.51 in 10.0 mi SW 4.6 mph - N/A   Clear
7:53 AM 44.6 °F 41.4 °F 39.2 °F 81% 29.51 in 10.0 mi SW 5.8 mph - N/A   Clear
8:13 AM 44.6 °F - 39.2 °F 81% 29.51 in 10.0 mi Calm Calm - N/A   Clear
8:33 AM 44.6 °F 42.2 °F 39.2 °F 81% 29.51 in 10.0 mi WSW 4.6 mph - N/A   Clear
8:52 AM 44.6 °F 41.4 °F 39.2 °F 81% 29.51 in 10.0 mi WSW 5.8 mph - N/A   Clear
9:13 AM 44.6 °F 40.7 °F 39.2 °F 81% 29.52 in 10.0 mi SW 6.9 mph - N/A   Clear
9:33 AM 44.6 °F 40.7 °F 39.2 °F 81% 29.51 in 10.0 mi WSW 6.9 mph - N/A   Scattered Clouds
9:52 AM 44.6 °F 40.2 °F 37.4 °F 76% 29.52 in 10.0 mi West 8.1 mph - N/A   Clear
10:13 AM 44.6 °F 40.2 °F 37.4 °F 76% 29.53 in 10.0 mi West 8.1 mph - N/A   Clear
10:32 AM 44.6 °F 40.7 °F 37.4 °F 76% 29.53 in 10.0 mi West 6.9 mph - N/A   Clear
10:53 AM 44.6 °F 41.4 °F 37.4 °F 76% 29.53 in 10.0 mi WNW 5.8 mph - N/A   Clear
11:13 AM 46.4 °F 41.9 °F 37.4 °F 71% 29.54 in 10.0 mi WNW 9.2 mph - N/A   Clear
11:33 AM 46.4 °F 41.9 °F 37.4 °F 71% 29.54 in 10.0 mi West 9.2 mph - N/A   Clear
11:53 AM 44.6 °F 39.7 °F 35.6 °F 71% 29.55 in 10.0 mi West 9.2 mph 16.1 mph N/A   Scattered Clouds
12:13 PM 42.8 °F 38.0 °F 35.6 °F 76% 29.54 in 10.0 mi West 8.1 mph 17.3 mph N/A   Scattered Clouds
12:33 PM 42.8 °F 38.0 °F 35.6 °F 76% 29.55 in 10.0 mi West 8.1 mph - N/A   Scattered Clouds
12:53 PM 44.6 °F 38.8 °F 35.6 °F 71% 29.56 in 10.0 mi West 11.5 mph 16.1 mph N/A   Scattered Clouds
1:13 PM 41.0 °F 33.5 °F 35.6 °F 81% 29.58 in 10.0 mi West 13.8 mph - N/A   Overcast
1:33 PM 39.2 °F 31.6 °F 33.8 °F 81% 29.58 in 10.0 mi WSW 12.7 mph - N/A Rain Light Rain
1:53 PM 37.4 °F 30.8 °F 33.8 °F 87% 29.59 in 10.0 mi West 9.2 mph - N/A Rain Light Rain
2:13 PM 37.4 °F 29.8 °F 33.8 °F 87% 29.60 in 10.0 mi WNW 11.5 mph 18.4 mph N/A Rain Light Rain
2:33 PM 35.6 °F 28.0 °F 33.8 °F 93% 29.60 in 10.0 mi West 10.4 mph - N/A   Overcast
2:53 PM 35.6 °F 28.0 °F 33.8 °F 93% 29.61 in 10.0 mi WNW 10.4 mph - N/A   Overcast
3:13 PM 35.6 °F 28.0 °F 33.8 °F 93% 29.62 in 10.0 mi WNW 10.4 mph 18.4 mph N/A   Overcast
3:33 PM 33.8 °F 26.4 °F 33.8 °F 100% 29.63 in 7.0 mi WNW 9.2 mph - N/A   Overcast
3:52 PM 33.8 °F 25.3 °F 33.8 °F 100% 29.63 in 2.5 mi WNW 11.5 mph 18.4 mph N/A   Overcast
4:13 PM 33.8 °F 24.8 °F 32.0 °F 93% 29.64 in 3.0 mi West 12.7 mph 17.3 mph N/A Rain Light Rain
4:33 PM 33.8 °F 26.4 °F 32.0 °F 93% 29.63 in 4.0 mi WNW 9.2 mph 17.3 mph N/A Snow Light Snow
4:52 PM 32.0 °F 24.8 °F 30.2 °F 93% 29.64 in 5.0 mi NW 8.1 mph - N/A Snow Light Snow
5:13 PM 32.0 °F 23.0 °F 30.2 °F 93% 29.65 in 5.0 mi WNW 11.5 mph - N/A Snow Light Snow
5:33 PM 30.2 °F 22.6 °F 30.2 °F 100% 29.66 in 0.8 mi West 8.1 mph - 0.01 in Snow Snow
5:52 PM 30.2 °F 20.2 °F 30.2 °F 100% 29.65 in 1.2 mi West 12.7 mph 18.4 mph 0.02 in Snow Light Snow
6:13 PM 30.2 °F 23.4 °F 28.4 °F 93% 29.65 in 0.8 mi WNW 6.9 mph - 0.01 in Snow Snow
6:33 PM 30.2 °F 22.6 °F 28.4 °F 93% 29.65 in 1.0 mi West 8.1 mph - 0.03 in Snow Snow
6:53 PM 30.2 °F 24.3 °F 28.4 °F 93% 29.64 in 1.0 mi WNW 5.8 mph - 0.04 in Snow Snow
7:13 PM 30.2 °F 21.9 °F 28.4 °F 93% 29.64 in 1.0 mi WNW 9.2 mph - 0.01 in Snow Snow
7:32 PM 30.2 °F 22.6 °F 28.4 °F 93% 29.63 in 1.0 mi WNW 8.1 mph - 0.02 in Snow Snow
7:53 PM 30.2 °F 22.6 °F 28.4 °F 93% 29.64 in 1.2 mi West 8.1 mph - 0.03 in Snow Light Snow
8:13 PM 30.2 °F 22.6 °F 28.4 °F 93% 29.64 in 1.0 mi West 8.1 mph - 0.02 in Snow Snow
8:32 PM 30.2 °F 21.9 °F 28.4 °F 93% 29.65 in 1.0 mi WNW 9.2 mph - 0.04 in Snow Snow
8:53 PM 30.2 °F 18.5 °F 28.4 °F 93% 29.65 in 1.0 mi NW 17.3 mph 25.3 mph 0.06 in Snow Snow
9:13 PM 30.2 °F 21.3 °F 28.4 °F 93% 29.66 in 1.2 mi NW 10.4 mph 17.3 mph 0.01 in Snow Light Snow
9:33 PM 28.4 °F 18.5 °F 28.4 °F 100% 29.67 in 1.0 mi NW 11.5 mph 21.9 mph 0.01 in Snow Light Snow
9:53 PM 28.4 °F 17.0 °F 26.6 °F 93% 29.67 in 0.8 mi NW 15.0 mph 25.3 mph 0.02 in Snow Snow
10:13 PM 26.6 °F 14.7 °F 26.6 °F 100% 29.68 in 1.0 mi NNW 15.0 mph 25.3 mph 0.01 in Snow Snow
10:32 PM 26.6 °F 15.7 °F 26.6 °F 100% 29.68 in 1.0 mi NNW 12.7 mph 26.5 mph 0.02 in Snow Snow
10:53 PM 26.6 °F 15.2 °F 24.8 °F 93% 29.70 in 1.0 mi NW 13.8 mph 26.5 mph 0.03 in Snow Snow
11:13 PM 24.8 °F 14.6 °F 24.8 °F 100% 29.71 in 0.8 mi NNW 10.4 mph 21.9 mph 0.01 in Snow Snow
11:32 PM 24.8 °F 13.4 °F 23.0 °F 93% 29.71 in 0.8 mi NNW 12.7 mph 21.9 mph 0.03 in Snow Snow
11:53 PM 24.8 °F 12.4 °F 21.2 °F 86% 29.73 in 0.8 mi NNW 15.0 mph 31.1 mph 0.04 in Snow Snow